Time;durP1;ratioP1;P1;durP2;ratioP2;P2;SDS_P1;SDS_P2;PMS_P1;PMS_P2;Temp;Humidity;BMP_temperature;BMP_pressure;BME280_temperature;BME280_humidity;BME280_pressure;Samples;Min_cycle;Max_cycle;Signal;HPM_P1;HPM_P2
2022/03/16 00:02:03;;;;;;;0.50;0.50;;;-3.00;99.90;;;;;;5078018;28;20188;-84
2022/03/16 00:04:29;;;;;;;0.50;0.50;;;-3.00;99.90;;;;;;5064860;28;20229;-84
2022/03/16 00:06:55;;;;;;;0.60;0.57;;;-3.00;99.90;;;;;;5037976;28;20197;-84
2022/03/16 00:09:21;;;;;;;0.90;0.90;;;-2.90;99.90;;;;;;5063461;28;20635;-84
2022/03/16 00:11:46;;;;;;;0.82;0.82;;;-2.90;99.90;;;;;;5057589;28;20212;-83
2022/03/16 00:14:12;;;;;;;1.50;0.80;;;-3.00;99.90;;;;;;5058068;28;20747;-83
2022/03/16 00:16:38;;;;;;;0.40;0.40;;;-3.00;99.90;;;;;;5073039;28;20212;-83
2022/03/16 00:19:04;;;;;;;0.40;0.40;;;-3.00;99.90;;;;;;5075371;28;20299;-83
2022/03/16 00:21:30;;;;;;;0.40;0.40;;;-3.10;99.90;;;;;;5057705;28;20346;-83
2022/03/16 00:23:56;;;;;;;0.50;0.50;;;-3.10;99.90;;;;;;5057906;28;20197;-84
2022/03/16 00:26:21;;;;;;;0.98;0.98;;;-3.10;99.90;;;;;;5057308;28;20189;-84
2022/03/16 00:28:47;;;;;;;2.22;1.38;;;-3.10;99.90;;;;;;5057480;28;20686;-84
2022/03/16 00:31:13;;;;;;;1.00;0.95;;;-3.10;99.90;;;;;;5057256;28;20197;-84
2022/03/16 00:33:38;;;;;;;0.82;0.82;;;-3.20;99.90;;;;;;5057089;28;20205;-82
2022/03/16 00:36:04;;;;;;;0.80;0.80;;;-3.10;99.90;;;;;;5074301;28;20208;-84
2022/03/16 00:38:30;;;;;;;0.95;0.95;;;-3.20;99.90;;;;;;5056807;28;20216;-83
2022/03/16 00:40:56;;;;;;;0.40;0.40;;;-3.20;99.90;;;;;;5075422;28;20189;-83
2022/03/16 00:43:22;;;;;;;1.20;0.80;;;-3.30;99.90;;;;;;5074898;28;20195;-83
2022/03/16 00:45:48;;;;;;;0.47;0.47;;;-3.30;99.90;;;;;;5093098;28;20192;-82
2022/03/16 00:48:13;;;;;;;0.65;0.65;;;-3.30;99.90;;;;;;5076748;28;20254;-83
2022/03/16 00:50:39;;;;;;;1.15;1.13;;;-3.30;99.90;;;;;;5094811;28;20275;-83
2022/03/16 00:53:05;;;;;;;0.65;0.65;;;-3.30;99.90;;;;;;5077235;28;20291;-83
2022/03/16 00:55:30;;;;;;;0.47;0.47;;;-3.30;99.90;;;;;;5094985;28;20192;-83
2022/03/16 00:57:56;;;;;;;0.80;0.70;;;-3.40;99.90;;;;;;5077081;28;20690;-84
2022/03/16 01:00:22;;;;;;;0.55;0.55;;;-3.40;99.90;;;;;;5094603;28;20263;-84
2022/03/16 01:02:47;;;;;;;0.68;0.68;;;-3.30;99.90;;;;;;5076581;28;20632;-83
2022/03/16 01:05:13;;;;;;;3.05;0.98;;;-3.20;99.90;;;;;;5079106;28;20342;-83
2022/03/16 01:07:39;;;;;;;0.50;0.50;;;-3.20;99.90;;;;;;5074323;28;20698;-83
2022/03/16 01:10:06;;;;;;;0.30;0.30;;;-3.30;99.90;;;;;;5056659;28;20781;-84
2022/03/16 01:12:31;;;;;;;0.65;0.65;;;-3.30;99.90;;;;;;5056001;28;20197;-83
2022/03/16 01:14:57;;;;;;;1.20;1.15;;;-3.40;99.90;;;;;;5073050;28;20203;-84
2022/03/16 01:17:23;;;;;;;0.50;0.50;;;-3.50;99.90;;;;;;5072893;28;20231;-84
2022/03/16 01:19:48;;;;;;;1.02;1.02;;;-3.40;99.90;;;;;;5072851;28;20375;-84
2022/03/16 01:22:14;;;;;;;4.18;2.17;;;-3.50;99.90;;;;;;5073762;28;20188;-84
2022/03/16 01:24:40;;;;;;;1.77;1.67;;;-3.50;99.90;;;;;;5073991;28;20197;-84
2022/03/16 01:27:05;;;;;;;0.82;0.82;;;-3.50;99.90;;;;;;5056510;28;20270;-84
2022/03/16 01:29:32;;;;;;;0.50;0.50;;;-3.50;99.90;;;;;;5073924;28;20189;-84
2022/03/16 01:31:58;;;;;;;2.22;0.55;;;-3.60;99.90;;;;;;5073821;28;20223;-84
2022/03/16 01:34:23;;;;;;;0.93;0.93;;;-3.70;99.90;;;;;;5073753;28;20201;-84
2022/03/16 01:36:49;;;;;;;0.60;0.60;;;-3.70;99.90;;;;;;5056117;28;20201;-84
2022/03/16 01:39:15;;;;;;;1.10;1.10;;;-3.80;99.90;;;;;;5055674;28;20235;-84
2022/03/16 01:41:42;;;;;;;0.50;0.50;;;-3.80;99.90;;;;;;5072474;28;20258;-83
2022/03/16 01:44:08;;;;;;;0.63;0.63;;;-3.80;99.90;;;;;;5073829;28;20185;-83
2022/03/16 01:46:34;;;;;;;1.02;0.90;;;-3.90;99.90;;;;;;5055842;28;20251;-83
2022/03/16 01:49:00;;;;;;;0.73;0.73;;;-3.90;99.90;;;;;;5055462;28;20204;-84
2022/03/16 01:51:26;;;;;;;0.55;0.55;;;-3.90;99.90;;;;;;5072305;28;20728;-83
2022/03/16 01:53:52;;;;;;;0.50;0.50;;;-3.90;99.90;;;;;;5071506;28;20192;-84
2022/03/16 01:56:19;;;;;;;0.73;0.73;;;-3.90;99.90;;;;;;5072071;28;20903;-84
2022/03/16 01:58:45;;;;;;;0.70;0.70;;;-3.80;99.90;;;;;;5055505;28;20209;-84
2022/03/16 02:01:13;;;;;;;1.40;1.20;;;-3.80;99.90;;;;;;5051660;28;20198;-84
2022/03/16 02:03:39;;;;;;;0.80;0.80;;;-3.80;99.90;;;;;;5048694;28;20730;-84
2022/03/16 02:06:12;;;;;;;5.78;2.58;;;-3.90;99.90;;;;;;5085369;28;20220;-84
2022/03/16 02:08:40;;;;;;;1.55;1.45;;;-4.00;99.90;;;;;;5083509;28;20199;-84
2022/03/16 02:11:06;;;;;;;0.50;0.50;;;-4.10;99.90;;;;;;5095644;28;20200;-84
2022/03/16 02:13:36;;;;;;;0.80;0.80;;;-4.10;99.90;;;;;;5113634;28;20198;-84
2022/03/16 02:16:03;;;;;;;0.93;0.93;;;-4.10;99.90;;;;;;5095197;28;20196;-84
2022/03/16 02:18:29;;;;;;;0.80;0.80;;;-4.20;99.90;;;;;;5113415;28;20203;-84
2022/03/16 02:20:56;;;;;;;0.77;0.77;;;-4.20;99.90;;;;;;5075623;28;20681;-84
2022/03/16 02:23:22;;;;;;;0.73;0.73;;;-4.20;99.90;;;;;;5093294;28;20632;-84
2022/03/16 02:25:53;;;;;;;0.40;0.40;;;-4.20;99.90;;;;;;5093241;28;20220;-83
2022/03/16 02:28:20;;;;;;;1.55;1.45;;;-4.30;99.90;;;;;;5093238;28;20209;-83
2022/03/16 02:30:46;;;;;;;0.98;0.98;;;-4.30;99.90;;;;;;5074839;28;20204;-84
2022/03/16 02:33:11;;;;;;;0.82;0.77;;;-4.20;99.90;;;;;;5074500;28;20699;-84
2022/03/16 02:35:38;;;;;;;1.05;1.00;;;-4.20;99.90;;;;;;5073115;28;20207;-84
2022/03/16 02:38:04;;;;;;;0.50;0.50;;;-4.10;99.90;;;;;;5074992;28;20726;-84
2022/03/16 02:40:30;;;;;;;0.70;0.70;;;-4.10;99.90;;;;;;5092839;28;20738;-83
2022/03/16 02:42:56;;;;;;;1.33;1.23;;;-4.00;99.90;;;;;;5075168;28;20629;-83
2022/03/16 02:45:22;;;;;;;0.80;0.80;;;-3.90;99.90;;;;;;5074765;28;20274;-84
2022/03/16 02:47:48;;;;;;;0.47;0.47;;;-4.00;99.90;;;;;;5092976;28;20192;-84
2022/03/16 02:50:19;;;;;;;1.88;1.77;;;-4.00;99.90;;;;;;5074907;28;20704;-83
2022/03/16 02:52:47;;;;;;;0.47;0.47;;;-4.00;99.90;;;;;;5092919;28;20224;-83
2022/03/16 02:55:13;;;;;;;0.60;0.60;;;-4.00;99.90;;;;;;5074736;28;20290;-84
2022/03/16 02:57:39;;;;;;;0.75;0.75;;;-4.10;99.90;;;;;;5092381;28;20286;-84
2022/03/16 03:00:07;;;;;;;1.30;1.20;;;-4.20;99.90;;;;;;5092494;28;20202;-84
2022/03/16 03:02:35;;;;;;;0.40;0.40;;;-4.20;99.90;;;;;;5069573;28;20231;-84
2022/03/16 03:05:00;;;;;;;0.60;0.60;;;-4.20;99.90;;;;;;5070851;28;20208;-83
2022/03/16 03:07:26;;;;;;;0.50;0.50;;;-4.10;99.90;;;;;;5106652;28;20271;-84
2022/03/16 03:09:52;;;;;;;0.90;0.90;;;-4.10;99.90;;;;;;5112454;28;20187;-84
2022/03/16 03:12:18;;;;;;;1.13;1.13;;;-4.20;99.90;;;;;;5094942;28;20206;-84
2022/03/16 03:14:44;;;;;;;0.60;0.60;;;-4.30;99.90;;;;;;5094682;28;20574;-84
2022/03/16 03:17:10;;;;;;;0.98;0.98;;;-4.30;99.90;;;;;;5086785;28;20230;-84
2022/03/16 03:19:35;;;;;;;0.63;0.63;;;-4.40;99.90;;;;;;5092250;28;20234;-84
2022/03/16 03:22:02;;;;;;;5.15;1.75;;;-4.40;99.90;;;;;;5074564;28;20539;-84
2022/03/16 03:24:27;;;;;;;0.47;0.47;;;-4.40;99.90;;;;;;5074144;28;20224;-84
2022/03/16 03:26:53;;;;;;;0.50;0.50;;;-4.50;99.90;;;;;;5091471;28;20285;-85
2022/03/16 03:29:19;;;;;;;1.45;1.35;;;-4.50;99.90;;;;;;5073908;28;20860;-84
2022/03/16 03:31:45;;;;;;;0.60;0.60;;;-4.60;99.90;;;;;;5074212;28;20194;-85
2022/03/16 03:34:11;;;;;;;0.40;0.40;;;-4.60;99.90;;;;;;5074249;28;20208;-85
2022/03/16 03:36:37;;;;;;;0.70;0.70;;;-4.60;99.90;;;;;;5073963;28;20196;-84
2022/03/16 03:39:03;;;;;;;0.93;0.93;;;-4.70;99.90;;;;;;5092308;28;20200;-84
2022/03/16 03:41:29;;;;;;;0.73;0.73;;;-4.70;99.90;;;;;;5073184;28;20284;-83
2022/03/16 03:43:55;;;;;;;0.50;0.50;;;-4.70;99.90;;;;;;5090717;28;20633;-83
2022/03/16 03:46:21;;;;;;;0.57;0.57;;;-4.80;99.90;;;;;;5091956;28;20188;-83
2022/03/16 03:48:47;;;;;;;0.50;0.50;;;-4.80;99.90;;;;;;5092182;28;20197;-84
2022/03/16 03:51:12;;;;;;;0.65;0.65;;;-4.80;99.90;;;;;;5092465;28;20658;-85
2022/03/16 03:53:38;;;;;;;0.40;0.40;;;-4.80;99.90;;;;;;5092343;28;20196;-84
2022/03/16 03:56:04;;;;;;;0.50;0.50;;;-4.80;99.90;;;;;;5073854;28;20324;-84
2022/03/16 03:58:30;;;;;;;0.60;0.60;;;-4.80;99.90;;;;;;5091943;28;20200;-83
2022/03/16 04:00:57;;;;;;;1.25;1.15;;;-4.90;99.90;;;;;;5067889;28;20204;-83
2022/03/16 04:03:23;;;;;;;1.02;0.93;;;-4.90;99.90;;;;;;5074607;28;20251;-83
2022/03/16 04:05:49;;;;;;;0.55;0.55;;;-4.90;99.90;;;;;;5053800;28;20200;-84
2022/03/16 04:08:15;;;;;;;0.60;0.60;;;-4.90;99.90;;;;;;5053918;28;20200;-84
2022/03/16 04:10:40;;;;;;;0.40;0.40;;;-4.90;99.90;;;;;;5053965;28;20652;-83
2022/03/16 04:13:07;;;;;;;0.85;0.85;;;-4.90;99.90;;;;;;5072014;28;20676;-83
2022/03/16 04:15:33;;;;;;;0.55;0.55;;;-4.90;99.90;;;;;;5057358;28;20208;-83
2022/03/16 04:17:59;;;;;;;1.38;1.15;;;-5.00;99.90;;;;;;5075338;28;20209;-83
2022/03/16 04:20:25;;;;;;;2.03;1.85;;;-5.00;99.90;;;;;;5057304;28;20205;-83
2022/03/16 04:22:51;;;;;;;0.95;0.95;;;-5.00;99.90;;;;;;5057765;28;20200;-83
2022/03/16 04:25:17;;;;;;;0.57;0.57;;;-5.00;99.90;;;;;;5075304;28;20189;-83
2022/03/16 04:27:43;;;;;;;0.50;0.50;;;-5.00;99.90;;;;;;5058117;28;20201;-83
2022/03/16 04:30:09;;;;;;;0.50;0.50;;;-5.10;99.90;;;;;;5057191;28;20597;-83
2022/03/16 04:32:35;;;;;;;0.50;0.50;;;-5.10;99.90;;;;;;5075399;28;20203;-82
2022/03/16 04:35:01;;;;;;;0.47;0.47;;;-5.10;99.90;;;;;;5057405;28;20640;-83
2022/03/16 04:37:26;;;;;;;0.93;0.93;;;-5.10;99.90;;;;;;5057167;28;20201;-83
2022/03/16 04:39:52;;;;;;;0.40;0.40;;;-5.20;99.90;;;;;;5057184;28;20208;-83
2022/03/16 04:42:18;;;;;;;0.57;0.57;;;-5.20;99.90;;;;;;5056959;28;20197;-84
2022/03/16 04:44:43;;;;;;;0.80;0.80;;;-5.20;99.90;;;;;;5057102;28;20250;-84
2022/03/16 04:47:09;;;;;;;0.50;0.50;;;-5.10;99.90;;;;;;5056365;28;20592;-84
2022/03/16 04:49:35;;;;;;;0.90;0.90;;;-5.10;99.90;;;;;;5074580;28;20196;-83
2022/03/16 04:52:01;;;;;;;0.70;0.68;;;-5.00;99.90;;;;;;5075012;28;20665;-83
2022/03/16 04:54:28;;;;;;;1.50;1.40;;;-5.00;99.90;;;;;;5057108;28;20205;-82
2022/03/16 04:56:55;;;;;;;0.50;0.50;;;-5.00;99.90;;;;;;5056863;28;20208;-83
2022/03/16 04:59:20;;;;;;;0.45;0.45;;;-5.00;99.90;;;;;;5056611;28;20286;-83
2022/03/16 05:01:46;;;;;;;0.45;0.45;;;-5.00;99.90;;;;;;5072758;28;20228;-82
2022/03/16 05:04:12;;;;;;;0.50;0.50;;;-5.10;99.90;;;;;;5092343;28;20224;-82
2022/03/16 05:06:37;;;;;;;0.50;0.50;;;-5.10;99.90;;;;;;5076289;28;20196;-82
2022/03/16 05:09:03;;;;;;;0.98;0.98;;;-5.10;99.90;;;;;;5076392;28;20206;-82
2022/03/16 05:11:29;;;;;;;0.50;0.50;;;-5.10;99.90;;;;;;5094232;28;20192;-82
2022/03/16 05:13:57;;;;;;;0.70;0.70;;;-5.20;99.90;;;;;;5076765;28;20555;-83
2022/03/16 05:16:23;;;;;;;0.70;0.70;;;-5.20;99.90;;;;;;5094258;28;20196;-82
2022/03/16 05:18:48;;;;;;;2.67;2.03;;;-5.20;99.90;;;;;;5075996;28;20204;-82
2022/03/16 05:21:14;;;;;;;0.77;0.77;;;-5.20;99.90;;;;;;5075866;28;20203;-83
2022/03/16 05:23:40;;;;;;;1.73;1.65;;;-5.20;99.90;;;;;;5075363;28;20683;-84
2022/03/16 05:26:06;;;;;;;1.73;1.63;;;-5.20;99.90;;;;;;5094601;28;20224;-83
2022/03/16 05:28:32;;;;;;;0.90;0.90;;;-5.20;99.90;;;;;;5076020;28;20203;-83
2022/03/16 05:30:58;;;;;;;1.30;1.23;;;-5.10;99.90;;;;;;5076003;28;20219;-83
2022/03/16 05:33:24;;;;;;;0.60;0.60;;;-5.10;99.90;;;;;;5075833;28;20196;-84
2022/03/16 05:35:50;;;;;;;5.10;1.92;;;-5.10;99.90;;;;;;5076557;28;20195;-84
2022/03/16 05:38:16;;;;;;;0.55;0.55;;;-5.10;99.90;;;;;;5058446;28;20269;-83
2022/03/16 05:40:43;;;;;;;0.80;0.80;;;-5.10;99.90;;;;;;5075779;28;20188;-83
2022/03/16 05:43:10;;;;;;;0.50;0.50;;;-5.10;99.90;;;;;;5075964;28;20191;-83
2022/03/16 05:45:36;;;;;;;3.92;1.73;;;-5.10;99.90;;;;;;5093810;28;20557;-82
2022/03/16 05:48:02;;;;;;;0.70;0.70;;;-5.10;99.90;;;;;;5093938;28;20202;-82
2022/03/16 05:50:28;;;;;;;0.80;0.80;;;-5.10;99.90;;;;;;5093511;28;20223;-82
2022/03/16 05:52:58;;;;;;;0.75;0.75;;;-5.00;99.90;;;;;;5074960;28;20200;-83
2022/03/16 05:55:24;;;;;;;0.50;0.50;;;-5.00;99.90;;;;;;5074789;28;20200;-83
2022/03/16 05:57:50;;;;;;;1.00;1.00;;;-4.80;99.90;;;;;;5075547;28;20208;-83
2022/03/16 06:00:20;;;;;;;0.77;0.77;;;-4.70;99.90;;;;;;5075555;28;20274;-83
2022/03/16 06:02:47;;;;;;;0.50;0.50;;;-4.70;99.90;;;;;;5069106;28;20272;-83
2022/03/16 06:05:13;;;;;;;2.10;1.75;;;-4.60;99.90;;;;;;5073009;28;20229;-83
2022/03/16 06:07:41;;;;;;;0.57;0.57;;;-4.50;99.90;;;;;;5054918;28;20254;-83
2022/03/16 06:10:08;;;;;;;2.28;2.08;;;-4.50;99.90;;;;;;5055061;28;20196;-83
2022/03/16 06:12:34;;;;;;;1.35;1.25;;;-4.40;99.90;;;;;;5072754;28;20660;-83
2022/03/16 06:15:00;;;;;;;0.70;0.70;;;-4.30;99.90;;;;;;5073694;28;20187;-82
2022/03/16 06:17:25;;;;;;;0.40;0.40;;;-4.30;99.90;;;;;;5072891;28;20246;-83
2022/03/16 06:19:51;;;;;;;0.45;0.45;;;-4.20;99.90;;;;;;5054926;28;20216;-83
2022/03/16 06:22:17;;;;;;;0.90;0.90;;;-4.10;99.90;;;;;;5055191;28;20244;-83
2022/03/16 06:24:42;;;;;;;0.90;0.63;;;-4.00;99.90;;;;;;5072656;28;20208;-84
2022/03/16 06:27:08;;;;;;;1.30;1.15;;;-3.90;99.90;;;;;;5054715;28;20193;-83
2022/03/16 06:29:34;;;;;;;0.70;0.70;;;-3.80;99.90;;;;;;5053868;28;20251;-84
2022/03/16 06:31:59;;;;;;;1.05;1.05;;;-3.80;99.90;;;;;;5072828;28;20197;-84
2022/03/16 06:34:25;;;;;;;0.50;0.50;;;-3.70;99.90;;;;;;5055029;28;20224;-84
2022/03/16 06:36:51;;;;;;;2.22;1.48;;;-3.60;99.90;;;;;;5054601;28;20204;-85
2022/03/16 06:39:17;;;;;;;0.50;0.50;;;-3.50;99.90;;;;;;5071504;28;20684;-84
2022/03/16 06:41:43;;;;;;;0.70;0.70;;;-3.40;99.90;;;;;;5072362;28;20561;-84
2022/03/16 06:44:10;;;;;;;0.40;0.40;;;-3.30;99.90;;;;;;5071704;28;20193;-84
2022/03/16 06:46:37;;;;;;;5.85;3.58;;;-3.10;99.90;;;;;;5070933;28;20201;-83
2022/03/16 06:49:02;;;;;;;0.50;0.50;;;-3.00;99.90;;;;;;5054560;28;20197;-84
2022/03/16 06:51:28;;;;;;;0.98;0.98;;;-2.80;99.90;;;;;;5088058;28;20207;-83
2022/03/16 06:53:54;;;;;;;3.03;1.27;;;-2.70;99.90;;;;;;5071417;28;20201;-84
2022/03/16 06:56:19;;;;;;;0.50;0.50;;;-2.60;99.90;;;;;;5072336;28;20201;-83
2022/03/16 06:58:45;;;;;;;5.28;1.55;;;-2.40;99.90;;;;;;5054358;28;20675;-84
2022/03/16 07:01:11;;;;;;;1.05;1.05;;;-2.20;99.90;;;;;;5053904;28;20567;-84
2022/03/16 07:03:36;;;;;;;0.57;0.57;;;-2.10;99.90;;;;;;5064825;28;20227;-84
2022/03/16 07:06:02;;;;;;;0.95;0.95;;;-2.00;99.90;;;;;;5072405;28;20181;-83
2022/03/16 07:08:28;;;;;;;0.45;0.45;;;-1.90;99.90;;;;;;5072178;28;20266;-83
2022/03/16 07:10:54;;;;;;;0.77;0.73;;;-1.70;99.90;;;;;;5054640;28;20571;-83
2022/03/16 07:13:20;;;;;;;1.73;1.63;;;-1.60;99.90;;;;;;5054191;28;20278;-83
2022/03/16 07:15:46;;;;;;;0.40;0.40;;;-1.40;99.90;;;;;;5054448;28;20655;-84
2022/03/16 07:18:12;;;;;;;0.60;0.60;;;-1.30;99.90;;;;;;5072309;28;20572;-84
2022/03/16 07:20:38;;;;;;;0.60;0.60;;;-1.10;99.90;;;;;;5054205;28;20401;-83
2022/03/16 07:23:12;;;;;;;1.00;0.70;;;-1.00;99.90;;;;;;5054229;28;20208;-84
2022/03/16 07:25:40;;;;;;;1.55;1.20;;;-0.80;99.90;;;;;;5054063;28;20777;-84
2022/03/16 07:28:06;;;;;;;0.93;0.93;;;-0.70;99.90;;;;;;5054436;28;20586;-84
2022/03/16 07:30:33;;;;;;;0.75;0.75;;;-0.50;99.90;;;;;;5053782;28;20196;-84
2022/03/16 07:32:59;;;;;;;3.70;1.85;;;-0.40;99.90;;;;;;5054458;28;20258;-84
2022/03/16 07:35:26;;;;;;;1.23;1.20;;;-0.30;99.90;;;;;;5071943;28;20205;-84
2022/03/16 07:37:54;;;;;;;0.68;0.68;;;-0.30;99.90;;;;;;5071231;28;20196;-84
2022/03/16 07:40:20;;;;;;;0.55;0.55;;;-0.20;99.90;;;;;;5071908;28;20193;-84
2022/03/16 07:42:47;;;;;;;0.50;0.50;;;-0.10;99.90;;;;;;5071838;28;20298;-85
2022/03/16 07:45:18;;;;;;;0.45;0.45;;;0.00;99.90;;;;;;5053940;28;20221;-84
2022/03/16 07:47:45;;;;;;;0.70;0.70;;;0.00;99.90;;;;;;5069436;28;20204;-84
2022/03/16 07:50:11;;;;;;;0.50;0.50;;;0.10;99.90;;;;;;5094951;28;20196;-84
2022/03/16 07:52:37;;;;;;;0.65;0.65;;;0.10;99.90;;;;;;5077981;28;20293;-84
2022/03/16 07:55:04;;;;;;;0.75;0.75;;;0.20;99.90;;;;;;5062863;28;20347;-84
2022/03/16 07:57:30;;;;;;;0.80;0.80;;;0.20;99.90;;;;;;5057728;28;20567;-84
2022/03/16 07:59:56;;;;;;;1.10;1.00;;;0.20;99.90;;;;;;5057611;28;20212;-84
2022/03/16 08:02:22;;;;;;;0.88;0.88;;;0.30;99.90;;;;;;5054738;28;20281;-84
2022/03/16 08:04:48;;;;;;;0.60;0.60;;;0.40;99.90;;;;;;5070630;28;20291;-84
2022/03/16 08:07:13;;;;;;;5.05;3.03;;;0.50;99.90;;;;;;5075599;28;20193;-84
2022/03/16 08:09:39;;;;;;;0.30;0.30;;;0.50;99.90;;;;;;5075781;28;20589;-85
2022/03/16 08:12:05;;;;;;;0.88;0.88;;;0.60;99.90;;;;;;5074790;28;20273;-84
2022/03/16 08:14:31;;;;;;;0.52;0.52;;;0.50;99.90;;;;;;5057335;28;20565;-85
2022/03/16 08:16:57;;;;;;;0.75;0.75;;;0.50;99.90;;;;;;5075579;28;20224;-85
2022/03/16 08:19:22;;;;;;;0.73;0.70;;;0.40;99.90;;;;;;5057520;28;20211;-85
2022/03/16 08:21:48;;;;;;;0.73;0.73;;;0.50;99.90;;;;;;5057473;28;20223;-85
2022/03/16 08:24:14;;;;;;;0.63;0.63;;;0.50;99.90;;;;;;5075621;28;20294;-85
2022/03/16 08:26:40;;;;;;;0.30;0.30;;;0.50;99.90;;;;;;5075319;28;20216;-84
2022/03/16 08:29:07;;;;;;;0.43;0.43;;;0.50;99.90;;;;;;5057548;28;20200;-85
2022/03/16 08:31:34;;;;;;;0.30;0.30;;;0.60;99.90;;;;;;5057199;28;20209;-84
2022/03/16 08:34:01;;;;;;;0.30;0.30;;;0.70;99.90;;;;;;5057758;28;20663;-85
2022/03/16 08:36:26;;;;;;;1.48;1.23;;;0.80;99.90;;;;;;5075187;28;20280;-84
2022/03/16 08:38:52;;;;;;;0.47;0.47;;;0.90;99.90;;;;;;5057123;28;20295;-84
2022/03/16 08:41:18;;;;;;;0.50;0.50;;;1.00;99.90;;;;;;5057153;28;20197;-84
2022/03/16 08:43:45;;;;;;;0.68;0.68;;;1.10;99.90;;;;;;5092330;28;20317;-84
2022/03/16 08:46:10;;;;;;;0.73;0.70;;;1.30;99.90;;;;;;5076776;28;20673;-84
2022/03/16 08:48:37;;;;;;;0.40;0.40;;;1.40;99.90;;;;;;5095155;28;20188;-85
2022/03/16 08:51:03;;;;;;;2.47;1.73;;;1.50;99.90;;;;;;5063978;28;20270;-85
2022/03/16 08:53:29;;;;;;;0.30;0.30;;;1.50;99.90;;;;;;5056800;28;20201;-85
2022/03/16 08:55:55;;;;;;;1.02;1.02;;;1.50;99.90;;;;;;5057826;28;20254;-85
2022/03/16 08:58:21;;;;;;;0.30;0.30;;;1.50;99.90;;;;;;5057674;28;20208;-85
2022/03/16 09:00:47;;;;;;;0.30;0.30;;;1.60;99.90;;;;;;5057219;28;20219;-85
2022/03/16 09:03:12;;;;;;;1.27;0.65;;;1.70;99.90;;;;;;5084860;28;20702;-86
2022/03/16 09:05:38;;;;;;;0.30;0.30;;;1.70;99.90;;;;;;5076626;28;20226;-85
2022/03/16 09:08:04;;;;;;;0.60;0.60;;;1.70;99.90;;;;;;5094849;28;20204;-86
2022/03/16 09:10:30;;;;;;;0.60;0.60;;;1.90;99.90;;;;;;5065187;28;20370;-85
2022/03/16 09:12:56;;;;;;;0.50;0.50;;;2.00;99.90;;;;;;5056526;28;20201;-85
2022/03/16 09:15:21;;;;;;;0.30;0.30;;;2.10;99.90;;;;;;5074312;28;20193;-85
2022/03/16 09:17:47;;;;;;;0.63;0.63;;;2.20;99.90;;;;;;5055697;28;20193;-84
2022/03/16 09:20:13;;;;;;;2.47;1.15;;;2.20;99.90;;;;;;5056296;28;20189;-85
2022/03/16 09:22:38;;;;;;;0.75;0.75;;;2.30;99.90;;;;;;5056090;28;20207;-85
2022/03/16 09:25:06;;;;;;;0.70;0.70;;;2.40;99.90;;;;;;5055974;28;20197;-86
2022/03/16 09:27:33;;;;;;;1.05;0.93;;;2.40;99.90;;;;;;5056127;28;20197;-85
2022/03/16 09:30:00;;;;;;;0.60;0.60;;;2.40;99.90;;;;;;5074231;28;20671;-85
2022/03/16 09:32:26;;;;;;;0.50;0.50;;;2.30;99.90;;;;;;5074473;28;20188;-85
2022/03/16 09:34:51;;;;;;;1.48;1.30;;;2.40;99.90;;;;;;5074730;28;20279;-85
2022/03/16 09:37:17;;;;;;;0.40;0.40;;;2.50;99.90;;;;;;5074159;28;20762;-85
2022/03/16 09:39:44;;;;;;;0.30;0.30;;;2.50;99.90;;;;;;5089436;28;20238;-85
2022/03/16 09:42:10;;;;;;;1.00;0.93;;;2.70;99.90;;;;;;5076358;28;20550;-85
2022/03/16 09:44:36;;;;;;;4.68;1.35;;;2.90;99.90;;;;;;5075644;28;20200;-86
2022/03/16 09:47:03;;;;;;;0.47;0.47;;;3.00;99.90;;;;;;5094705;28;20215;-86
2022/03/16 09:49:30;;;;;;;2.30;2.15;;;3.00;99.90;;;;;;5075953;28;20563;-86
2022/03/16 09:51:57;;;;;;;0.40;0.40;;;3.00;99.90;;;;;;5075241;28;20252;-85
2022/03/16 09:54:24;;;;;;;0.65;0.65;;;3.00;99.90;;;;;;5075470;28;20196;-86
2022/03/16 09:56:50;;;;;;;0.75;0.75;;;3.10;99.90;;;;;;5093793;28;20259;-86
2022/03/16 09:59:16;;;;;;;0.40;0.40;;;3.30;99.90;;;;;;5075820;28;20235;-86
2022/03/16 10:01:43;;;;;;;0.70;0.70;;;3.40;99.90;;;;;;5075088;28;20192;-86
2022/03/16 10:04:30;;;;;;;1.70;1.58;;;3.50;99.90;;;;;;5086835;28;20232;-86
2022/03/16 10:06:59;;;;;;;0.40;0.40;;;3.50;99.90;;;;;;5072893;28;20201;-87
2022/03/16 10:15:05;;;;;;;1.55;1.25;;;3.90;99.90;;;;;;5073596;28;20199;-85
2022/03/16 10:17:43;;;;;;;0.40;0.40;;;3.80;99.90;;;;;;5054979;28;20200;-86
2022/03/16 10:20:23;;;;;;;0.93;0.90;;;3.90;99.90;;;;;;5073236;28;20201;-86
2022/03/16 10:23:06;;;;;;;0.63;0.63;;;3.70;99.90;;;;;;5055363;28;20274;-86
2022/03/16 10:25:40;;;;;;;0.60;0.60;;;3.70;99.90;;;;;;5072815;28;20189;-85
2022/03/16 10:28:11;;;;;;;0.70;0.70;;;3.70;99.90;;;;;;5054893;28;20193;-85
2022/03/16 10:30:57;;;;;;;1.65;1.10;;;3.80;99.90;;;;;;5072686;28;20247;-84
2022/03/16 10:33:34;;;;;;;1.35;1.23;;;3.80;99.90;;;;;;5054803;28;20262;-84
2022/03/16 10:36:07;;;;;;;0.65;0.65;;;3.90;99.90;;;;;;5091321;28;20206;-86
2022/03/16 10:38:38;;;;;;;0.40;0.40;;;4.00;99.90;;;;;;5075071;28;20240;-85
2022/03/16 10:47:00;;;;;;;0.68;0.68;;;4.10;99.90;;;;;;5092167;28;20510;-85
2022/03/16 10:49:32;;;;;;;2.17;1.52;;;4.20;99.90;;;;;;5074643;28;20199;-85
2022/03/16 10:52:02;;;;;;;3.17;1.25;;;4.30;99.90;;;;;;5074993;28;20204;-86
2022/03/16 10:54:29;;;;;;;0.40;0.40;;;4.40;99.90;;;;;;5058300;28;20276;-86
2022/03/16 10:56:55;;;;;;;1.52;1.42;;;4.40;99.90;;;;;;5072350;28;20189;-85
2022/03/16 10:59:27;;;;;;;0.40;0.40;;;4.40;99.90;;;;;;5054156;28;20292;-85
2022/03/16 11:01:53;;;;;;;4.10;0.85;;;4.40;99.90;;;;;;5054149;28;20252;-86
2022/03/16 11:04:20;;;;;;;0.50;0.50;;;4.40;99.90;;;;;;5064345;28;20664;-85
2022/03/16 11:06:47;;;;;;;1.67;1.30;;;4.50;99.90;;;;;;5051101;28;20664;-86
2022/03/16 11:09:17;;;;;;;0.80;0.80;;;4.60;99.90;;;;;;5068590;28;20202;-85
2022/03/16 11:14:29;;;;;;;0.82;0.75;;;4.60;99.90;;;;;;5053124;28;20554;-85
2022/03/16 11:16:56;;;;;;;1.75;1.17;;;4.70;99.90;;;;;;5067910;28;20570;-85
2022/03/16 11:19:24;;;;;;;0.70;0.70;;;4.70;99.90;;;;;;5051463;28;20655;-86
2022/03/16 11:22:11;;;;;;;1.38;1.27;;;4.70;99.90;;;;;;5050800;28;20193;-85
2022/03/16 11:24:48;;;;;;;0.50;0.50;;;4.70;99.90;;;;;;5070734;28;20225;-85
2022/03/16 11:27:46;;;;;;;6.68;1.88;;;4.70;99.90;;;;;;5055771;28;20279;-86
2022/03/16 11:30:33;;;;;;;2.78;1.05;;;4.90;99.90;;;;;;5070955;28;20659;-87
2022/03/16 11:33:12;;;;;;;1.23;1.13;;;4.90;99.90;;;;;;5054382;28;20664;-87
2022/03/16 11:35:50;;;;;;;1.52;1.42;;;5.10;99.90;;;;;;5053973;28;20213;-87
2022/03/16 11:38:17;;;;;;;0.60;0.60;;;5.20;99.90;;;;;;5055359;28;20204;-86
2022/03/16 11:40:46;;;;;;;0.25;0.25;;;5.40;99.90;;;;;;5055033;28;20189;-86
2022/03/16 11:43:12;;;;;;;0.70;0.70;;;5.50;99.90;;;;;;5073938;28;20193;-88
2022/03/16 11:45:57;;;;;;;1.67;1.25;;;5.40;99.90;;;;;;5056829;28;20201;-87
2022/03/16 11:48:31;;;;;;;0.77;0.77;;;5.40;99.90;;;;;;5055064;28;20276;-87
2022/03/16 11:51:09;;;;;;;1.38;1.25;;;5.30;99.90;;;;;;5053685;28;20197;-87
2022/03/16 11:56:42;;;;;;;1.25;1.15;;;5.40;99.90;;;;;;5055097;28;20591;-88
2022/03/16 11:59:17;;;;;;;2.00;1.80;;;5.30;99.90;;;;;;5073179;28;20212;-87
2022/03/16 12:01:52;;;;;;;1.30;1.20;;;5.30;99.90;;;;;;5073283;28;20203;-88
2022/03/16 12:04:32;;;;;;;0.80;0.80;;;5.30;99.90;;;;;;5099371;28;20662;-87
2022/03/16 12:07:02;;;;;;;0.57;0.57;;;5.30;99.90;;;;;;5076881;28;20188;-88
2022/03/16 12:09:41;;;;;;;0.55;0.55;;;5.30;99.90;;;;;;5093600;28;20188;-88
2022/03/16 12:15:03;;;;;;;2.85;2.33;;;5.00;99.90;;;;;;5095168;28;20222;-87
2022/03/16 12:17:29;;;;;;;0.55;0.55;;;4.90;99.90;;;;;;5076535;28;20462;-87
2022/03/16 12:20:16;;;;;;;1.48;1.38;;;5.00;99.90;;;;;;5076950;28;20706;-85
2022/03/16 12:22:45;;;;;;;5.60;2.03;;;5.00;99.90;;;;;;5094710;28;20667;-87
2022/03/16 12:25:25;;;;;;;2.70;1.38;;;5.00;99.90;;;;;;5076630;28;20262;-87
2022/03/16 12:31:21;;;;;;;0.90;0.88;;;5.00;99.90;;;;;;5111078;28;20256;-87
2022/03/16 12:33:55;;;;;;;0.70;0.70;;;4.90;99.90;;;;;;5114479;28;20641;-88
2022/03/16 12:36:25;;;;;;;3.80;1.23;;;4.70;99.90;;;;;;5096407;28;20226;-87
2022/03/16 12:38:55;;;;;;;0.73;0.68;;;4.80;99.90;;;;;;5083494;28;20266;-87
2022/03/16 12:44:12;;;;;;;0.95;0.65;;;4.80;99.90;;;;;;5094335;28;20186;-87
2022/03/16 12:46:47;;;;;;;7.68;3.33;;;4.80;99.90;;;;;;5068138;28;20193;-87
2022/03/16 12:49:16;;;;;;;0.40;0.40;;;4.80;99.90;;;;;;5065410;28;20524;-87
2022/03/16 12:51:48;;;;;;;2.60;1.73;;;4.70;99.90;;;;;;5082155;28;20197;-87
2022/03/16 12:54:24;;;;;;;0.30;0.30;;;4.70;99.90;;;;;;5076576;28;20204;-86
2022/03/16 12:56:51;;;;;;;1.25;1.15;;;4.70;99.90;;;;;;5114617;28;20221;-86
2022/03/16 12:59:27;;;;;;;0.60;0.60;;;4.80;99.90;;;;;;5096214;28;20207;-88
2022/03/16 13:01:55;;;;;;;0.65;0.65;;;4.80;99.90;;;;;;5096000;28;20588;-88
2022/03/16 13:04:23;;;;;;;0.73;0.73;;;4.70;99.90;;;;;;5105679;28;20230;-86
2022/03/16 13:06:52;;;;;;;0.50;0.50;;;4.60;99.90;;;;;;5093916;28;20188;-87
2022/03/16 13:09:18;;;;;;;0.80;0.80;;;4.60;99.90;;;;;;5075590;28;20793;-84
2022/03/16 13:11:45;;;;;;;0.82;0.80;;;4.60;99.90;;;;;;5075806;28;20204;-87
2022/03/16 13:14:19;;;;;;;1.75;1.30;;;4.70;99.90;;;;;;5075681;28;20609;-88
2022/03/16 13:16:55;;;;;;;2.80;1.45;;;4.60;99.90;;;;;;5093821;28;20230;-87
2022/03/16 13:19:27;;;;;;;1.98;0.52;;;4.40;99.90;;;;;;5093452;28;20738;-87